createdAt,value
2019-06-01T00:01:51.358Z,29.17
2019-06-01T00:04:20.058Z,28.97
2019-06-01T00:06:49.028Z,29.10
2019-06-01T00:09:17.773Z,30.53
2019-06-01T00:11:47.525Z,31.10
2019-06-01T00:14:16.421Z,29.33
2019-06-01T00:16:46.060Z,31.13
2019-06-01T00:19:15.236Z,31.17
2019-06-01T00:21:45.439Z,30.43
2019-06-01T00:24:14.455Z,30.63
2019-06-01T00:26:43.714Z,31.90
2019-06-01T00:29:12.544Z,31.93
2019-06-01T00:31:42.958Z,32.73
2019-06-01T00:34:12.071Z,34.60
2019-06-01T00:36:41.511Z,34.93
2019-06-01T00:39:10.674Z,35.60
2019-06-01T00:41:39.381Z,34.87
2019-06-01T00:44:08.351Z,32.60
2019-06-01T00:46:37.099Z,32.30
2019-06-01T00:49:06.237Z,31.77
2019-06-01T00:51:35.252Z,30.67
2019-06-01T00:54:04.403Z,29.77
2019-06-01T00:56:33.234Z,30.10
2019-06-01T00:59:02.208Z,28.33
2019-06-01T01:01:31.204Z,29.17
2019-06-01T01:03:59.889Z,30.13
2019-06-01T01:06:28.948Z,29.70
2019-06-01T01:08:57.550Z,28.87
2019-06-01T01:11:26.459Z,29.07
2019-06-01T01:13:55.458Z,28.07
2019-06-01T01:16:24.150Z,29.77
2019-06-01T01:18:53.832Z,27.70
2019-06-01T01:21:22.640Z,28.13
2019-06-01T01:23:52.950Z,28.83
2019-06-01T01:26:22.167Z,28.07
2019-06-01T01:28:51.053Z,26.80
2019-06-01T01:31:20.052Z,28.30
2019-06-01T01:33:49.361Z,27.60
2019-06-01T01:36:18.600Z,27.90
2019-06-01T01:38:48.251Z,28.17
2019-06-01T01:41:17.265Z,26.60
2019-06-01T01:43:45.948Z,26.43
2019-06-01T01:46:14.965Z,25.33
2019-06-01T01:48:43.614Z,25.40
2019-06-01T01:51:12.289Z,24.40
2019-06-01T01:53:40.925Z,24.97
2019-06-01T01:56:10.504Z,24.87
2019-06-01T01:58:39.142Z,26.37
2019-06-01T02:01:21.293Z,25.10
2019-06-01T02:03:38.519Z,26.63
2019-06-01T02:06:07.602Z,26.30
2019-06-01T02:08:36.601Z,24.67
2019-06-01T02:11:05.597Z,25.60
2019-06-01T02:13:34.784Z,26.10
2019-06-01T02:16:03.678Z,25.73
2019-06-01T02:18:32.336Z,26.10
2019-06-01T02:21:02.698Z,23.90
2019-06-01T02:23:31.589Z,23.83
2019-06-01T02:26:01.166Z,24.00
2019-06-01T02:28:30.803Z,24.13
2019-06-01T02:31:00.191Z,24.67
2019-06-01T02:33:29.609Z,23.17
2019-06-01T02:36:00.660Z,24.10
2019-06-01T02:38:29.438Z,22.37
2019-06-01T02:40:58.965Z,23.43
2019-06-01T02:43:28.360Z,23.27
2019-06-01T02:45:58.119Z,23.87
2019-06-01T02:48:27.154Z,22.40
2019-06-01T02:50:57.439Z,22.53
2019-06-01T02:53:26.670Z,21.57
2019-06-01T02:55:55.818Z,21.13
2019-06-01T02:58:24.540Z,21.97
2019-06-01T03:01:24.698Z,22.67
2019-06-01T03:03:57.421Z,22.17
2019-06-01T03:06:28.456Z,22.63
2019-06-01T03:08:59.739Z,21.70
2019-06-01T03:11:33.268Z,20.50
2019-06-01T03:14:02.549Z,21.00
2019-06-01T03:16:31.549Z,20.90
2019-06-01T03:19:01.974Z,20.97
2019-06-01T03:21:33.027Z,21.10
2019-06-01T03:24:06.163Z,20.03
2019-06-01T03:26:41.226Z,19.57
2019-06-01T03:29:13.921Z,18.70
2019-06-01T03:31:42.542Z,19.33
2019-06-01T03:34:12.147Z,17.67
2019-06-01T03:36:42.043Z,17.47
2019-06-01T03:39:12.881Z,17.80
2019-06-01T03:41:42.837Z,18.47
2019-06-01T03:44:12.972Z,18.00
2019-06-01T03:46:42.215Z,16.97
2019-06-01T03:49:11.955Z,16.60
2019-06-01T03:51:41.219Z,15.10
2019-06-01T03:54:10.174Z,17.10
2019-06-01T03:56:39.799Z,15.23
2019-06-01T03:59:09.330Z,15.43
2019-06-01T04:01:38.319Z,13.40
2019-06-01T04:04:07.319Z,12.57
2019-06-01T04:06:36.613Z,13.23
2019-06-01T04:09:07.742Z,12.93
2019-06-01T04:11:36.710Z,12.53
2019-06-01T04:14:06.180Z,11.97
2019-06-01T04:16:35.455Z,12.17
2019-06-01T04:19:04.349Z,11.90
2019-06-01T04:21:33.335Z,11.43
2019-06-01T04:24:02.554Z,11.87
2019-06-01T04:26:33.089Z,11.10
2019-06-01T04:29:02.364Z,10.97
2019-06-01T04:31:31.976Z,11.40
2019-06-01T04:34:00.615Z,11.07
2019-06-01T04:36:29.688Z,10.67
2019-06-01T04:38:58.490Z,11.07
2019-06-01T04:41:27.435Z,10.57
2019-06-01T04:43:56.082Z,11.10
2019-06-01T04:46:25.168Z,10.30
2019-06-01T04:48:54.115Z,10.40
2019-06-01T04:51:22.756Z,9.90
2019-06-01T04:53:51.697Z,9.67
2019-06-01T04:56:21.302Z,10.43
2019-06-01T04:58:49.909Z,9.43
2019-06-01T05:01:18.878Z,10.07
2019-06-01T05:03:47.872Z,9.87
2019-06-01T05:06:17.272Z,9.93
2019-06-01T05:08:46.140Z,9.97
2019-06-01T05:11:15.705Z,8.63
2019-06-01T05:13:44.768Z,8.90
2019-06-01T05:16:14.848Z,8.87
2019-06-01T05:18:43.982Z,8.20
2019-06-01T05:21:13.098Z,7.40
2019-06-01T05:23:42.071Z,7.13
2019-06-01T05:26:11.089Z,7.50
2019-06-01T05:28:40.069Z,6.83
2019-06-01T05:31:13.243Z,6.60
2019-06-01T05:33:39.347Z,6.23
2019-06-01T05:36:08.406Z,6.70
2019-06-01T05:38:37.777Z,6.23
2019-06-01T05:41:06.774Z,6.40
2019-06-01T05:43:35.969Z,6.73
2019-06-01T05:46:04.962Z,6.67
2019-06-01T05:48:34.161Z,6.43
2019-06-01T05:51:03.359Z,6.70
2019-06-01T05:53:32.359Z,6.63
2019-06-01T05:56:00.985Z,6.40
2019-06-01T05:58:30.218Z,6.77
2019-06-01T06:00:58.878Z,7.17
2019-06-01T06:03:39.870Z,6.53
2019-06-01T06:05:58.545Z,6.43
2019-06-01T06:08:27.442Z,6.73
2019-06-01T06:10:56.438Z,6.83
2019-06-01T06:13:25.633Z,7.03
2019-06-01T06:15:54.634Z,7.37
2019-06-01T06:18:23.306Z,7.23
2019-06-01T06:20:52.202Z,7.73
2019-06-01T06:23:22.626Z,7.93
2019-06-01T06:25:51.657Z,8.10
2019-06-01T06:28:20.842Z,8.63
2019-06-01T06:30:49.460Z,8.60
2019-06-01T06:33:19.361Z,8.30
2019-06-01T06:35:48.317Z,8.10
2019-06-01T06:38:17.880Z,8.80
2019-06-01T06:40:46.634Z,8.93
2019-06-01T06:43:20.085Z,8.10
2019-06-01T06:45:46.350Z,7.97
2019-06-01T06:48:15.034Z,8.90
2019-06-01T06:50:44.335Z,7.90
2019-06-01T06:53:25.380Z,8.13
2019-06-01T06:55:44.489Z,8.30
2019-06-01T06:58:13.534Z,7.60
2019-06-01T07:00:42.476Z,7.70
2019-06-01T07:03:11.106Z,9.33
2019-06-01T07:05:39.719Z,9.27
2019-06-01T07:08:08.383Z,8.93
2019-06-01T07:10:37.403Z,8.70
2019-06-01T07:13:06.100Z,8.20
2019-06-01T07:15:34.773Z,9.77
2019-06-01T07:18:03.425Z,9.47
2019-06-01T07:20:32.407Z,9.17
2019-06-01T07:23:01.378Z,9.63
2019-06-01T07:25:30.652Z,10.73
2019-06-01T07:27:59.952Z,9.90
2019-06-01T07:30:28.679Z,11.20
2019-06-01T07:32:57.742Z,10.80
2019-06-01T07:35:26.737Z,10.70
2019-06-01T07:37:55.400Z,10.03
2019-06-01T07:40:24.820Z,10.97
2019-06-01T07:42:54.247Z,11.43
2019-06-01T07:45:23.013Z,10.63
2019-06-01T07:47:51.585Z,10.53
2019-06-01T07:50:20.457Z,9.50
2019-06-01T07:52:49.390Z,9.53
2019-06-01T07:55:18.372Z,9.63
2019-06-01T07:57:47.267Z,8.50
2019-06-01T08:00:16.444Z,8.37
2019-06-01T08:02:45.096Z,9.77
2019-06-01T08:05:13.937Z,9.90
2019-06-01T08:07:42.830Z,8.73
2019-06-01T08:10:11.601Z,9.87
2019-06-01T08:12:40.821Z,9.87
2019-06-01T08:15:10.015Z,8.40
2019-06-01T08:17:39.319Z,10.30
2019-06-01T08:20:08.467Z,9.30
2019-06-01T08:22:37.216Z,9.53
2019-06-01T08:25:06.416Z,8.90
2019-06-01T08:27:35.397Z,9.40
2019-06-01T08:30:04.651Z,8.70
2019-06-01T08:32:33.892Z,7.63
2019-06-01T08:35:08.406Z,8.13
2019-06-01T08:37:33.660Z,8.77
2019-06-01T08:40:02.844Z,9.80
2019-06-01T08:42:31.821Z,10.93
2019-06-01T08:45:00.455Z,10.47
2019-06-01T08:47:29.999Z,9.33
2019-06-01T08:49:58.936Z,10.00
2019-06-01T08:52:28.101Z,9.93
2019-06-01T08:54:57.096Z,11.17
2019-06-01T08:57:26.085Z,11.13
2019-06-01T08:59:55.785Z,10.93
2019-06-01T09:02:24.792Z,10.37
2019-06-01T09:04:53.409Z,10.93
2019-06-01T09:07:22.373Z,11.67
2019-06-01T09:09:51.008Z,11.57
2019-06-01T09:12:20.056Z,11.43
2019-06-01T09:14:48.720Z,11.23
2019-06-01T09:17:18.845Z,11.80
2019-06-01T09:19:47.868Z,10.77
2019-06-01T09:22:16.887Z,10.87
2019-06-01T09:24:46.154Z,10.93
2019-06-01T09:27:15.142Z,10.73
2019-06-01T09:29:44.754Z,11.20
2019-06-01T09:32:13.954Z,11.50
2019-06-01T09:34:42.948Z,11.00
2019-06-01T09:37:11.936Z,11.50
2019-06-01T09:39:41.228Z,12.17
2019-06-01T09:42:09.851Z,11.57
2019-06-01T09:44:38.826Z,11.63
2019-06-01T09:47:07.476Z,12.37
2019-06-01T09:49:36.087Z,12.33
2019-06-01T09:52:04.890Z,11.70
2019-06-01T09:54:35.110Z,11.83
2019-06-01T09:57:04.793Z,12.53
2019-06-01T09:59:34.011Z,12.10
2019-06-01T10:02:03.226Z,12.37
2019-06-01T10:04:32.819Z,11.47
2019-06-01T10:07:01.465Z,11.77
2019-06-01T10:09:31.525Z,10.80
2019-06-01T10:12:00.530Z,11.87
2019-06-01T10:14:30.090Z,12.37
2019-06-01T10:16:59.311Z,11.47
2019-06-01T10:19:28.212Z,11.83
2019-06-01T10:21:56.892Z,10.30
2019-06-01T10:24:25.549Z,11.63
2019-06-01T10:26:54.783Z,10.97
2019-06-01T10:29:23.710Z,11.37
2019-06-01T10:31:52.662Z,10.40
2019-06-01T10:34:21.792Z,11.73
2019-06-01T10:36:50.516Z,10.17
2019-06-01T10:39:19.870Z,10.00
2019-06-01T10:41:48.659Z,9.17
2019-06-01T10:44:17.697Z,9.20
2019-06-01T10:46:46.628Z,9.40
2019-06-01T10:49:15.820Z,8.60
2019-06-01T10:51:44.711Z,9.07
2019-06-01T10:54:13.729Z,8.97
2019-06-01T10:56:42.609Z,8.90
2019-06-01T10:59:11.562Z,9.07
2019-06-01T11:01:40.951Z,9.27
2019-06-01T11:04:09.757Z,7.97
2019-06-01T11:06:44.886Z,8.10
2019-06-01T11:09:09.495Z,8.50
2019-06-01T11:11:39.098Z,8.40
2019-06-01T11:14:07.916Z,7.50
2019-06-01T11:16:37.300Z,8.00
2019-06-01T11:19:06.114Z,6.57
2019-06-01T11:21:35.521Z,8.10
2019-06-01T11:24:04.484Z,6.77
2019-06-01T11:26:33.401Z,6.80
2019-06-01T11:29:02.386Z,7.33
2019-06-01T11:31:31.378Z,7.40
2019-06-01T11:34:00.278Z,6.73
2019-06-01T11:36:29.245Z,8.10
2019-06-01T11:38:58.154Z,7.23
2019-06-01T11:41:27.049Z,7.17
2019-06-01T11:43:55.743Z,6.37
2019-06-01T11:46:25.034Z,6.07
2019-06-01T11:48:53.926Z,7.00
2019-06-01T11:51:22.615Z,6.77
2019-06-01T11:53:51.668Z,7.03
2019-06-01T11:56:20.266Z,7.20
2019-06-01T11:58:49.203Z,5.80
2019-06-01T12:01:18.488Z,6.97
2019-06-01T12:03:47.116Z,6.47
2019-06-01T12:06:15.744Z,6.17
2019-06-01T12:08:46.214Z,6.37
2019-06-01T12:11:15.484Z,5.93
2019-06-01T12:13:44.598Z,6.27
2019-06-01T12:16:13.460Z,5.83
2019-06-01T12:18:42.626Z,7.00
2019-06-01T12:21:11.484Z,6.37
2019-06-01T12:23:41.443Z,6.80
2019-06-01T12:26:10.936Z,6.00
2019-06-01T12:28:41.478Z,6.73
2019-06-01T12:31:11.043Z,5.57
2019-06-01T12:33:39.927Z,6.13
2019-06-01T12:36:09.247Z,5.30
2019-06-01T12:38:56.064Z,5.47
2019-06-01T12:41:27.541Z,5.23
2019-06-01T12:44:17.384Z,5.73
2019-06-01T12:46:46.962Z,5.40
2019-06-01T12:49:16.001Z,5.00
2019-06-01T12:51:44.836Z,6.07
2019-06-01T12:54:13.691Z,6.40
2019-06-01T12:56:42.880Z,7.13
2019-06-01T12:59:11.720Z,8.03
2019-06-01T13:01:41.100Z,6.90
2019-06-01T13:04:10.056Z,7.10
2019-06-01T13:06:38.778Z,7.50
2019-06-01T13:09:08.904Z,7.23
2019-06-01T13:11:37.669Z,7.10
2019-06-01T13:14:07.989Z,6.67
2019-06-01T13:16:36.797Z,7.10
2019-06-01T13:19:06.077Z,7.00
2019-06-01T13:21:34.905Z,6.47
2019-06-01T13:24:04.217Z,7.07
2019-06-01T13:26:33.236Z,6.70
2019-06-01T13:29:02.329Z,6.70
2019-06-01T13:31:31.427Z,6.83
2019-06-01T13:34:00.574Z,6.57
2019-06-01T13:36:29.623Z,6.60
2019-06-01T13:38:59.143Z,6.30
2019-06-01T13:41:27.848Z,6.43
2019-06-01T13:43:56.660Z,6.47
2019-06-01T13:46:25.732Z,6.30
2019-06-01T13:48:54.924Z,6.10
2019-06-01T13:51:23.656Z,6.17
2019-06-01T13:53:52.915Z,6.40
2019-06-01T13:56:21.967Z,5.80
2019-06-01T13:58:50.765Z,6.03
2019-06-01T14:01:19.444Z,5.83
2019-06-01T14:03:49.382Z,5.90
2019-06-01T14:06:18.733Z,5.07
2019-06-01T14:08:47.453Z,4.90
2019-06-01T14:11:16.583Z,4.67
2019-06-01T14:13:45.564Z,3.70
2019-06-01T14:16:14.677Z,3.83
2019-06-01T14:18:43.371Z,3.77
2019-06-01T14:21:12.420Z,3.07
2019-06-01T14:23:41.443Z,3.30
2019-06-01T14:26:10.405Z,3.40
2019-06-01T14:28:39.929Z,3.33
2019-06-01T14:31:08.705Z,2.87
2019-06-01T14:33:37.607Z,2.60
2019-06-01T14:36:06.330Z,2.80
2019-06-01T14:38:46.690Z,2.53
2019-06-01T14:41:06.037Z,2.83
2019-06-01T14:43:35.238Z,2.73
2019-06-01T14:46:04.272Z,3.10
2019-06-01T14:48:33.235Z,3.00
2019-06-01T14:51:02.198Z,2.87
2019-06-01T14:53:30.954Z,3.63
2019-06-01T14:55:59.991Z,4.10
2019-06-01T14:58:28.788Z,4.10
2019-06-01T15:00:58.587Z,5.60
2019-06-01T15:03:27.614Z,5.40
2019-06-01T15:05:56.608Z,4.93
2019-06-01T15:08:27.008Z,4.93
2019-06-01T15:10:57.044Z,4.60
2019-06-01T15:13:25.981Z,5.30
2019-06-01T15:15:55.618Z,5.43
2019-06-01T15:18:24.535Z,6.40
2019-06-01T15:20:53.794Z,5.53
2019-06-01T15:23:22.782Z,5.50
2019-06-01T15:25:52.362Z,5.43
2019-06-01T15:28:21.550Z,5.67
2019-06-01T15:30:50.893Z,4.97
2019-06-01T15:33:21.368Z,5.23
2019-06-01T15:35:52.118Z,4.60
2019-06-01T15:38:21.019Z,5.10
2019-06-01T15:40:49.743Z,5.60
2019-06-01T15:43:18.767Z,4.97
2019-06-01T15:45:47.848Z,4.87
2019-06-01T15:48:16.565Z,4.90
2019-06-01T15:50:45.561Z,5.10
2019-06-01T15:53:14.931Z,5.33
2019-06-01T15:55:44.305Z,5.93
2019-06-01T15:58:13.734Z,6.63
2019-06-01T16:00:42.484Z,5.97
2019-06-01T16:03:11.133Z,5.70
2019-06-01T16:05:39.900Z,6.37
2019-06-01T16:08:08.995Z,6.07
2019-06-01T16:10:37.826Z,6.33
2019-06-01T16:13:06.516Z,6.40
2019-06-01T16:15:35.532Z,6.33
2019-06-01T16:18:04.438Z,6.67
2019-06-01T16:20:33.572Z,6.83
2019-06-01T16:23:02.606Z,6.07
2019-06-01T16:25:34.055Z,6.10
2019-06-01T16:28:03.906Z,6.33
2019-06-01T16:30:37.429Z,6.63
2019-06-01T16:33:06.226Z,6.53
2019-06-01T16:35:35.192Z,6.53
2019-06-01T16:38:05.729Z,6.47
2019-06-01T16:40:35.258Z,6.00
2019-06-01T16:43:05.589Z,5.80
2019-06-01T16:45:34.865Z,6.40
2019-06-01T16:48:03.843Z,5.57
2019-06-01T16:50:32.560Z,6.50
2019-06-01T16:53:02.123Z,6.07
2019-06-01T16:55:31.636Z,6.07
2019-06-01T16:58:01.211Z,5.63
2019-06-01T17:00:30.455Z,5.30
2019-06-01T17:02:59.159Z,6.13
2019-06-01T17:05:27.809Z,6.10
2019-06-01T17:07:56.828Z,6.20
2019-06-01T17:10:26.678Z,6.23
2019-06-01T17:12:56.828Z,5.70
2019-06-01T17:15:26.472Z,5.50
2019-06-01T17:17:56.881Z,5.97
2019-06-01T17:20:51.508Z,5.93
2019-06-01T17:23:26.758Z,5.20
2019-06-01T17:25:50.620Z,5.40
2019-06-01T17:28:19.727Z,5.00
2019-06-01T17:30:48.988Z,5.20
2019-06-01T17:33:18.926Z,4.70
2019-06-01T17:35:47.923Z,4.53
2019-06-01T17:38:16.576Z,4.40
2019-06-01T17:40:45.902Z,5.43
2019-06-01T17:43:15.111Z,5.23
2019-06-01T17:45:43.921Z,4.67
2019-06-01T17:48:25.213Z,5.20
2019-06-01T17:50:43.153Z,4.83
2019-06-01T17:53:13.021Z,5.03
2019-06-01T17:55:42.632Z,4.63
2019-06-01T17:58:12.512Z,4.63
2019-06-01T18:00:42.095Z,4.23
2019-06-01T18:03:12.047Z,5.10
2019-06-01T18:05:41.232Z,4.63
2019-06-01T18:08:10.435Z,4.40
2019-06-01T18:10:52.398Z,4.90
2019-06-01T18:13:10.576Z,4.57
2019-06-01T18:15:39.793Z,4.20
2019-06-01T18:18:10.360Z,4.10
2019-06-01T18:20:39.319Z,4.10
2019-06-01T18:23:10.124Z,4.40
2019-06-01T18:25:38.891Z,6.77
2019-06-01T18:28:14.651Z,4.20
2019-06-01T18:30:38.610Z,4.17
2019-06-01T18:33:07.325Z,4.10
2019-06-01T18:35:36.851Z,4.30
2019-06-01T18:38:05.973Z,3.77
2019-06-01T18:40:34.967Z,4.20
2019-06-01T18:43:07.842Z,3.93
2019-06-01T18:45:37.199Z,3.57
2019-06-01T18:48:06.239Z,5.03
2019-06-01T18:50:35.863Z,4.00
2019-06-01T18:53:06.033Z,3.60
2019-06-01T18:55:35.884Z,3.60
2019-06-01T18:58:06.393Z,3.50
2019-06-01T19:00:39.342Z,3.37
2019-06-01T19:03:07.235Z,3.03
2019-06-01T19:05:36.210Z,2.90
2019-06-01T19:08:05.152Z,3.30
2019-06-01T19:10:34.217Z,3.00
2019-06-01T19:13:02.881Z,3.27
2019-06-01T19:15:31.828Z,3.27
2019-06-01T19:18:00.811Z,2.93
2019-06-01T19:20:33.184Z,2.93
2019-06-01T19:23:00.643Z,3.07
2019-06-01T19:25:29.328Z,3.30
2019-06-01T19:27:58.009Z,3.10
2019-06-01T19:30:37.916Z,3.10
2019-06-01T19:33:11.015Z,3.07
2019-06-01T19:35:38.943Z,3.13
2019-06-01T19:38:08.947Z,3.20
2019-06-01T19:40:39.397Z,3.07
2019-06-01T19:43:09.440Z,2.80
2019-06-01T19:45:38.206Z,3.30
2019-06-01T19:48:08.232Z,2.83
2019-06-01T19:50:37.105Z,3.50
2019-06-01T19:53:06.099Z,3.10
2019-06-01T19:55:35.395Z,3.00
2019-06-01T19:58:04.354Z,3.03
2019-06-01T20:00:33.567Z,3.13
2019-06-01T20:03:02.845Z,3.73
2019-06-01T20:05:32.282Z,3.93
2019-06-01T20:08:01.310Z,3.87
2019-06-01T20:10:30.491Z,3.70
2019-06-01T20:12:59.552Z,3.73
2019-06-01T20:15:29.410Z,3.40
2019-06-01T20:17:58.927Z,3.63
2019-06-01T20:20:27.751Z,3.47
2019-06-01T20:22:57.213Z,3.50
2019-06-01T20:25:26.206Z,3.50
2019-06-01T20:27:54.998Z,3.63
2019-06-01T20:30:24.293Z,3.43
2019-06-01T20:32:53.017Z,3.23
2019-06-01T20:35:22.196Z,3.27
2019-06-01T20:37:51.099Z,3.17
2019-06-01T20:40:20.465Z,3.10
2019-06-01T20:42:49.228Z,3.33
2019-06-01T20:45:18.783Z,3.20
2019-06-01T20:47:47.646Z,3.43
2019-06-01T20:50:18.683Z,3.70
2019-06-01T20:52:47.729Z,4.37
2019-06-01T20:55:19.134Z,4.00
2019-06-01T20:57:48.089Z,4.03
2019-06-01T21:00:17.777Z,4.13
2019-06-01T21:02:46.794Z,3.97
2019-06-01T21:05:15.863Z,4.40
2019-06-01T21:07:44.930Z,3.67
2019-06-01T21:10:14.423Z,4.33
2019-06-01T21:12:45.649Z,4.20
2019-06-01T21:15:15.084Z,4.30
2019-06-01T21:17:44.577Z,4.30
2019-06-01T21:20:18.780Z,4.33
2019-06-01T21:22:44.306Z,4.40
2019-06-01T21:25:14.743Z,3.90
2019-06-01T21:27:44.233Z,4.50
2019-06-01T21:30:14.738Z,4.80
2019-06-01T21:32:44.178Z,4.47
2019-06-01T21:35:13.166Z,4.37
2019-06-01T21:37:42.787Z,4.83
2019-06-01T21:40:11.687Z,5.43
2019-06-01T21:42:40.851Z,4.90
2019-06-01T21:45:10.885Z,4.30
2019-06-01T21:47:40.392Z,5.00
2019-06-01T21:50:10.000Z,4.70
2019-06-01T21:52:39.142Z,4.43
2019-06-01T21:55:08.675Z,4.67
2019-06-01T21:57:37.680Z,4.30
2019-06-01T22:00:08.384Z,4.63
2019-06-01T22:02:37.271Z,6.33
2019-06-01T22:05:06.574Z,5.27
2019-06-01T22:07:35.821Z,4.87
2019-06-01T22:10:05.171Z,5.13
2019-06-01T22:12:34.129Z,5.40
2019-06-01T22:15:03.030Z,5.97
2019-06-01T22:17:32.015Z,5.60
2019-06-01T22:20:00.649Z,6.47
2019-06-01T22:22:29.304Z,6.70
2019-06-01T22:24:58.605Z,6.57
2019-06-01T22:27:28.515Z,6.67
2019-06-01T22:29:57.484Z,6.00
2019-06-01T22:32:29.533Z,7.57
2019-06-01T22:34:56.821Z,6.90
2019-06-01T22:37:25.867Z,7.13
2019-06-01T22:39:54.447Z,7.87
2019-06-01T22:42:24.297Z,7.40
2019-06-01T22:44:53.010Z,7.70
2019-06-01T22:47:22.475Z,8.17
2019-06-01T22:49:51.291Z,7.70
2019-06-01T22:52:20.980Z,8.10
2019-06-01T22:54:49.807Z,7.73
2019-06-01T22:57:18.443Z,7.43
2019-06-01T22:59:47.356Z,8.57
2019-06-01T23:02:16.248Z,8.63
2019-06-01T23:04:45.154Z,8.80
2019-06-01T23:07:13.775Z,8.43
2019-06-01T23:09:42.394Z,6.93
2019-06-01T23:12:11.112Z,8.20
2019-06-01T23:14:40.708Z,8.10
2019-06-01T23:17:10.003Z,7.33
2019-06-01T23:19:39.099Z,7.07
2019-06-01T23:22:08.178Z,6.67
2019-06-01T23:24:36.789Z,25.87
2019-06-01T23:27:05.581Z,13.23
2019-06-01T23:29:34.977Z,8.00
2019-06-01T23:32:03.880Z,7.73
2019-06-01T23:34:32.832Z,7.57
2019-06-01T23:37:01.593Z,7.97
2019-06-01T23:39:30.847Z,8.23
2019-06-01T23:41:59.947Z,7.40
2019-06-01T23:44:31.911Z,7.77
2019-06-01T23:46:59.566Z,8.10
2019-06-01T23:49:29.243Z,7.07
2019-06-01T23:51:58.378Z,6.70
2019-06-01T23:54:27.858Z,6.87
2019-06-01T23:56:56.788Z,6.50
2019-06-01T23:59:27.942Z,7.30
